Time;durP1;ratioP1;P1;durP2;ratioP2;P2;SDS_P1;SDS_P2;PMS_P1;PMS_P2;Temp;Humidity;BMP_temperature;BMP_pressure;BME280_temperature;BME280_humidity;BME280_pressure;Samples;Min_cycle;Max_cycle;Signal;HPM_P1;HPM_P2
2023/08/25 00:01:30;;;;;;;13.10;11.73;;;;;;;19.45;100.00;100973.31;6279983;22;20019;-74
2023/08/25 00:03:57;;;;;;;17.25;12.48;;;;;;;19.41;100.00;100964.72;6280191;22;20016;-75
2023/08/25 00:06:24;;;;;;;14.50;12.02;;;;;;;19.38;100.00;100967.69;6279718;22;20016;-75
2023/08/25 00:08:50;;;;;;;13.35;11.95;;;;;;;19.34;100.00;100965.25;6280776;22;20016;-75
2023/08/25 00:11:17;;;;;;;13.63;12.25;;;;;;;19.28;100.00;100972.63;6280807;22;20012;-77
2023/08/25 00:13:44;;;;;;;12.55;11.25;;;;;;;19.29;100.00;100976.78;6280773;22;20063;-74
2023/08/25 00:16:11;;;;;;;13.00;11.45;;;;;;;19.27;100.00;100979.97;6280811;22;20067;-74
2023/08/25 00:18:37;;;;;;;13.95;11.48;;;;;;;19.23;100.00;100974.09;6252101;22;20016;-75
2023/08/25 00:21:04;;;;;;;16.95;12.20;;;;;;;19.22;100.00;100975.31;6280953;22;20040;-76
2023/08/25 00:23:31;;;;;;;13.18;11.82;;;;;;;19.19;100.00;100973.59;6279908;22;20078;-75
2023/08/25 00:25:57;;;;;;;13.02;11.77;;;;;;;19.17;100.00;100975.34;6280642;22;20082;-75
2023/08/25 00:28:24;;;;;;;14.73;13.32;;;;;;;19.13;100.00;100972.16;6280144;22;20111;-75
2023/08/25 00:30:51;;;;;;;14.38;12.85;;;;;;;19.10;100.00;100981.25;6280769;22;20012;-75
2023/08/25 00:33:18;;;;;;;14.73;13.00;;;;;;;19.08;100.00;100981.00;6280011;22;20020;-75
2023/08/25 00:35:45;;;;;;;14.70;12.70;;;;;;;19.07;100.00;100974.13;6253018;22;20082;-75
2023/08/25 00:38:14;;;;;;;14.57;13.05;;;;;;;19.01;100.00;100979.53;6227610;22;20016;-75
2023/08/25 00:40:40;;;;;;;16.23;12.90;;;;;;;19.01;100.00;100978.78;6252303;22;20017;-75
2023/08/25 00:43:07;;;;;;;14.43;13.23;;;;;;;18.98;100.00;100978.56;6280450;22;20429;-75
2023/08/25 00:45:38;;;;;;;19.02;13.93;;;;;;;18.97;100.00;100982.47;6279976;22;20063;-75
2023/08/25 00:48:05;;;;;;;16.80;15.10;;;;;;;18.95;100.00;100978.78;6253106;22;20013;-75
2023/08/25 00:50:33;;;;;;;17.20;15.25;;;;;;;18.91;100.00;100983.69;6279781;22;20417;-75
2023/08/25 00:53:01;;;;;;;16.35;14.77;;;;;;;18.91;100.00;100978.31;6280643;22;20016;-76
2023/08/25 00:55:28;;;;;;;20.83;16.20;;;;;;;18.89;100.00;100983.44;6252303;22;20024;-75
2023/08/25 00:57:55;;;;;;;18.67;16.73;;;;;;;18.86;100.00;100985.16;6253006;22;20074;-75
2023/08/25 01:00:22;;;;;;;19.38;16.98;;;;;;;18.81;100.00;100977.81;6279821;22;20012;-75
2023/08/25 01:02:49;;;;;;;23.45;17.27;;;;;;;18.79;100.00;100980.28;6279732;22;20023;-75
2023/08/25 01:05:16;;;;;;;18.63;16.27;;;;;;;18.77;100.00;100977.34;6280240;22;20016;-75
2023/08/25 01:07:43;;;;;;;18.27;16.38;;;;;;;18.76;100.00;100970.47;6280073;22;20465;-75
2023/08/25 01:10:11;;;;;;;18.73;16.85;;;;;;;18.75;100.00;100979.78;6252977;22;20051;-75
2023/08/25 01:12:51;;;;;;;18.35;16.45;;;;;;;18.74;100.00;100967.53;6252081;22;20074;-75
2023/08/25 01:15:31;;;;;;;17.85;16.05;;;;;;;18.74;100.00;100970.22;6279911;22;20023;-75
2023/08/25 01:18:15;;;;;;;18.05;16.15;;;;;;;18.72;100.00;100966.56;6280223;22;20017;-75
2023/08/25 01:20:46;;;;;;;18.10;16.25;;;;;;;18.68;100.00;100971.44;6279920;22;20074;-75
2023/08/25 01:23:17;;;;;;;18.73;16.10;;;;;;;18.67;100.00;100961.88;6252878;22;20020;-75
2023/08/25 01:25:46;;;;;;;;;;;;;;;18.68;100.00;100972.19;6253096;22;20016;-75
2023/08/25 01:28:13;;;;;;;17.67;15.77;;;;;;;18.63;100.00;100965.56;6252770;22;20362;-75
2023/08/25 01:30:39;;;;;;;16.60;15.07;;;;;;;18.61;100.00;100965.31;6278765;22;20044;-75
2023/08/25 01:33:06;;;;;;;17.70;16.00;;;;;;;18.59;100.00;100969.69;6252933;22;20031;-75
2023/08/25 01:35:45;;;;;;;22.30;16.38;;;;;;;18.57;100.00;100966.75;6279467;22;20019;-75
2023/08/25 01:38:38;;;;;;;18.55;16.70;;;;;;;18.55;100.00;100963.81;6280620;22;20099;-75
2023/08/25 01:41:10;;;;;;;18.90;16.92;;;;;;;18.53;100.00;100980.47;6252812;22;20347;-75
2023/08/25 01:43:41;;;;;;;19.48;17.13;;;;;;;18.52;100.00;100972.88;6279407;22;20521;-75
2023/08/25 01:46:09;;;;;;;20.60;18.25;;;;;;;18.50;100.00;100967.97;6252243;22;20421;-75
2023/08/25 01:48:40;;;;;;;22.30;17.98;;;;;;;18.50;100.00;100969.94;6252009;22;20307;-74
2023/08/25 01:51:07;;;;;;;19.10;17.10;;;;;;;18.46;100.00;100970.16;6281549;22;20016;-75
2023/08/25 01:53:33;;;;;;;21.45;19.25;;;;;;;18.45;100.00;100963.31;6280748;22;20466;-74
2023/08/25 01:56:00;;;;;;;21.38;18.55;;;;;;;18.44;100.00;100971.88;6280619;22;20341;-75
2023/08/25 01:58:28;;;;;;;22.05;19.65;;;;;;;18.42;100.00;100963.53;6253464;22;20016;-76
2023/08/25 02:00:54;;;;;;;25.00;19.05;;;;;;;18.42;100.00;100963.53;6252930;22;20016;-75
2023/08/25 02:03:22;;;;;;;27.52;20.17;;;;;;;18.43;100.00;100959.63;6253021;22;20464;-75
2023/08/25 02:05:48;;;;;;;24.13;19.92;;;;;;;18.44;100.00;100966.50;6253812;22;20035;-75
2023/08/25 02:08:15;;;;;;;22.90;20.33;;;;;;;18.46;100.00;100962.09;6281379;22;20012;-75
2023/08/25 02:10:42;;;;;;;28.45;21.23;;;;;;;18.48;100.00;100956.94;6253262;22;20100;-75
2023/08/25 02:13:09;;;;;;;26.10;21.73;;;;;;;18.51;100.00;100968.72;6254239;22;20087;-75
2023/08/25 02:15:35;;;;;;;30.50;23.00;;;;;;;18.52;100.00;100956.69;6252200;22;20016;-75
2023/08/25 02:18:02;;;;;;;34.20;24.27;;;;;;;18.54;100.00;100959.63;6281245;22;20012;-74
2023/08/25 02:20:29;;;;;;;32.63;25.13;;;;;;;18.55;100.00;100950.31;6252992;22;20434;-74
2023/08/25 02:22:55;;;;;;;32.78;25.23;;;;;;;18.56;100.00;100951.81;6254176;22;20347;-75
2023/08/25 02:25:22;;;;;;;32.95;25.70;;;;;;;18.55;100.00;100948.38;6253083;22;20016;-74
2023/08/25 02:27:48;;;;;;;34.88;25.02;;;;;;;18.59;100.00;100948.13;6253492;22;20070;-75
2023/08/25 02:30:15;;;;;;;43.70;27.98;;;;;;;18.60;100.00;100939.59;6280408;22;20016;-75
2023/08/25 02:32:42;;;;;;;36.90;28.35;;;;;;;18.62;100.00;100941.78;6252841;22;20027;-74
2023/08/25 02:35:08;;;;;;;43.38;29.33;;;;;;;18.62;100.00;100941.78;6280917;22;20442;-75
2023/08/25 02:37:54;;;;;;;39.10;28.52;;;;;;;18.65;100.00;100935.41;6252693;22;20016;-75
2023/08/25 02:40:21;;;;;;;44.88;30.02;;;;;;;18.67;100.00;100932.22;6252948;22;20016;-74
2023/08/25 02:42:47;;;;;;;40.22;30.10;;;;;;;18.67;100.00;100930.28;6252856;22;20355;-74
2023/08/25 02:45:14;;;;;;;48.53;30.35;;;;;;;18.69;100.00;100932.47;6253393;22;20020;-74
2023/08/25 02:47:41;;;;;;;42.67;31.95;;;;;;;18.69;100.00;100924.38;6280141;22;20060;-74
2023/08/25 02:50:08;;;;;;;46.47;31.20;;;;;;;18.70;100.00;100932.00;6280984;22;20332;-75
2023/08/25 02:52:34;;;;;;;49.35;31.90;;;;;;;18.70;100.00;100921.19;6280417;22;20016;-74
2023/08/25 02:55:01;;;;;;;45.85;32.70;;;;;;;18.71;100.00;100913.84;6280838;22;20094;-75
2023/08/25 02:57:28;;;;;;;49.58;32.55;;;;;;;18.70;100.00;100915.81;6251902;22;20070;-75
2023/08/25 02:59:54;;;;;;;52.55;31.88;;;;;;;18.71;100.00;100911.16;6253083;22;20016;-74
2023/08/25 03:02:21;;;;;;;54.10;32.17;;;;;;;18.69;100.00;100898.16;6252795;22;20048;-75
2023/08/25 03:04:47;;;;;;;44.72;31.45;;;;;;;18.71;100.00;100897.66;6281329;22;20074;-74
2023/08/25 03:07:15;;;;;;;44.63;31.83;;;;;;;18.69;100.00;100895.47;6281072;22;20100;-75
2023/08/25 03:09:42;;;;;;;46.35;33.03;;;;;;;18.68;100.00;100887.88;6252984;22;20428;-74
2023/08/25 03:12:08;;;;;;;44.28;32.25;;;;;;;18.67;100.00;100889.09;6280323;22;20016;-75
2023/08/25 03:14:35;;;;;;;39.58;30.02;;;;;;;18.65;100.00;100884.94;6252578;22;20012;-75
2023/08/25 03:17:01;;;;;;;42.60;30.60;;;;;;;18.64;100.00;100883.44;6253272;22;20103;-74
2023/08/25 03:19:28;;;;;;;43.95;31.35;;;;;;;18.64;100.00;100880.03;6252500;22;20074;-74
2023/08/25 03:21:55;;;;;;;43.40;31.05;;;;;;;18.66;100.00;100877.56;6253514;22;20056;-75
2023/08/25 03:24:21;;;;;;;43.75;31.25;;;;;;;18.69;100.00;100881.97;6252496;22;20016;-75
2023/08/25 03:26:48;;;;;;;45.97;31.98;;;;;;;18.71;100.00;100881.50;6280119;22;20070;-75
2023/08/25 03:29:15;;;;;;;43.47;32.25;;;;;;;18.72;100.00;100882.97;6280541;22;20036;-75
2023/08/25 03:31:41;;;;;;;40.95;30.65;;;;;;;18.72;100.00;100875.59;6252859;22;20473;-75
2023/08/25 03:34:09;;;;;;;44.55;31.33;;;;;;;18.74;100.00;100875.13;6280659;22;20070;-74
2023/08/25 03:36:35;;;;;;;41.40;30.33;;;;;;;18.73;100.00;100887.88;6280478;22;20044;-75
2023/08/25 03:39:04;;;;;;;40.25;30.38;;;;;;;18.74;100.00;100878.53;6253796;22;20016;-75
2023/08/25 03:41:31;;;;;;;41.42;30.23;;;;;;;18.75;100.00;100874.63;6251897;22;20024;-75
2023/08/25 03:43:58;;;;;;;42.33;30.80;;;;;;;18.75;100.00;100869.22;6228188;22;20589;-74
2023/08/25 03:46:24;;;;;;;41.95;31.13;;;;;;;18.76;100.00;100868.00;6252670;22;20023;-75
2023/08/25 03:48:51;;;;;;;40.33;29.38;;;;;;;18.75;100.00;100869.22;6280824;22;20016;-75
2023/08/25 03:51:17;;;;;;;37.28;30.52;;;;;;;18.76;100.00;100862.63;6280299;22;20020;-75
2023/08/25 03:53:44;;;;;;;36.90;28.48;;;;;;;18.76;100.00;100859.19;6253853;22;20024;-74
2023/08/25 03:56:11;;;;;;;37.35;28.98;;;;;;;18.75;100.00;100858.44;6279431;22;20070;-75
2023/08/25 03:58:38;;;;;;;37.10;28.75;;;;;;;18.75;100.00;100858.44;6252843;22;20599;-75
2023/08/25 04:01:06;;;;;;;37.78;29.77;;;;;;;18.75;100.00;100861.16;6280661;22;20020;-75
2023/08/25 04:03:33;;;;;;;36.63;28.52;;;;;;;18.75;100.00;100861.16;6279882;22;20071;-75
2023/08/25 04:06:00;;;;;;;34.58;28.63;;;;;;;18.75;100.00;100858.44;6280799;22;20016;-75
2023/08/25 04:08:26;;;;;;;40.50;28.70;;;;;;;18.74;100.00;100859.66;6279869;22;20438;-75
2023/08/25 04:10:53;;;;;;;35.85;29.02;;;;;;;18.76;100.00;100865.31;6252534;22;20024;-75
2023/08/25 04:13:20;;;;;;;35.25;28.40;;;;;;;18.77;100.00;100856.00;6279828;22;20061;-75
2023/08/25 04:15:56;;;;;;;37.50;28.85;;;;;;;18.77;100.00;100856.00;6252969;22;20022;-75
2023/08/25 04:18:26;;;;;;;37.40;28.27;;;;;;;18.75;100.00;100839.56;6251983;22;20339;-75
2023/08/25 04:20:52;;;;;;;33.83;27.38;;;;;;;18.75;100.00;100842.28;6252811;22;20024;-75
2023/08/25 04:23:24;;;;;;;38.90;28.13;;;;;;;18.76;100.00;100837.59;6252236;22;20024;-75
2023/08/25 04:25:51;;;;;;;38.17;28.83;;;;;;;18.77;100.00;100841.78;6252721;22;20102;-76
2023/08/25 04:28:19;;;;;;;34.38;27.85;;;;;;;18.77;100.00;100845.22;6279675;22;20027;-76
2023/08/25 04:30:45;;;;;;;36.03;27.67;;;;;;;18.79;100.00;100833.94;6280379;22;19996;-75
2023/08/25 04:33:21;;;;;;;37.90;28.25;;;;;;;18.78;100.00;100837.84;6252372;22;20012;-75
2023/08/25 04:35:48;;;;;;;33.90;26.60;;;;;;;18.80;100.00;100836.09;6253204;22;20020;-75
2023/08/25 04:38:15;;;;;;;33.30;26.88;;;;;;;18.81;100.00;100834.88;6227752;22;20445;-75
2023/08/25 04:40:43;;;;;;;36.00;27.13;;;;;;;18.81;100.00;100829.47;6252154;22;20023;-76
2023/08/25 04:43:09;;;;;;;36.72;28.00;;;;;;;18.80;100.00;100833.41;6280348;22;20012;-75
2023/08/25 04:45:36;;;;;;;36.80;27.50;;;;;;;18.82;100.00;100824.81;6252185;22;20027;-75
2023/08/25 04:48:03;;;;;;;36.00;28.13;;;;;;;18.81;100.00;100828.75;6253207;22;20454;-75
2023/08/25 04:50:30;;;;;;;34.90;27.67;;;;;;;18.81;100.00;100826.78;6251874;22;20036;-75
2023/08/25 04:52:57;;;;;;;34.38;26.92;;;;;;;18.81;100.00;100831.44;6279865;22;20047;-75
2023/08/25 04:55:24;;;;;;;38.10;27.50;;;;;;;18.82;100.00;100827.53;6279319;22;20016;-75
2023/08/25 04:57:51;;;;;;;37.13;28.38;;;;;;;18.83;100.00;100829.00;6279425;22;20496;-76
2023/08/25 05:00:18;;;;;;;38.65;27.60;;;;;;;18.83;100.00;100823.59;6252228;22;20020;-75
2023/08/25 05:02:48;;;;;;;44.92;28.55;;;;;;;18.83;100.00;100821.63;6252478;22;20048;-76
2023/08/25 05:05:17;;;;;;;36.95;27.10;;;;;;;18.82;100.00;100830.94;6252604;22;20016;-75
2023/08/25 05:07:44;;;;;;;34.20;27.15;;;;;;;18.83;100.00;100829.00;6252337;22;20023;-75
2023/08/25 05:10:12;;;;;;;37.00;27.92;;;;;;;18.84;100.00;100825.06;6252816;22;20063;-75
2023/08/25 05:12:42;;;;;;;34.50;26.70;;;;;;;18.85;100.00;100824.56;6252566;22;20016;-75
2023/08/25 05:15:09;;;;;;;31.35;26.60;;;;;;;18.87;100.00;100826.78;6253007;22;20023;-76
2023/08/25 05:17:37;;;;;;;38.67;27.90;;;;;;;18.88;100.00;100828.97;6251824;22;20454;-75
2023/08/25 05:20:05;;;;;;;36.72;27.92;;;;;;;18.88;100.00;100826.28;6253294;22;20020;-75
2023/08/25 05:22:32;;;;;;;37.05;28.25;;;;;;;18.89;100.00;100822.34;6251359;22;20016;-75
2023/08/25 05:24:58;;;;;;;34.88;26.88;;;;;;;18.93;100.00;100824.81;6252241;22;20102;-75
2023/08/25 05:27:25;;;;;;;35.50;27.30;;;;;;;18.95;100.00;100819.66;6252183;22;20074;-75
2023/08/25 05:29:55;;;;;;;35.28;27.98;;;;;;;18.97;100.00;100819.88;6252367;22;20028;-75
2023/08/25 05:32:23;;;;;;;37.92;26.98;;;;;;;18.98;100.00;100816.69;6279301;22;20099;-75
2023/08/25 05:34:50;;;;;;;33.55;26.88;;;;;;;19.02;100.00;100821.09;6279967;22;20026;-76
2023/08/25 05:37:16;;;;;;;34.97;27.13;;;;;;;19.05;100.00;100822.81;6279571;22;20434;-75
2023/08/25 05:39:43;;;;;;;35.92;26.63;;;;;;;19.08;100.00;100819.84;6252439;22;20104;-75
2023/08/25 05:42:10;;;;;;;38.13;27.60;;;;;;;19.09;100.00;100820.59;6252532;22;20020;-75
2023/08/25 05:44:36;;;;;;;37.28;26.73;;;;;;;19.11;100.00;100823.53;6279394;22;20058;-75
2023/08/25 05:47:05;;;;;;;36.25;27.33;;;;;;;19.10;100.00;100822.06;6252468;22;20020;-76
2023/08/25 05:49:31;;;;;;;24.42;21.13;;;;;;;19.12;100.00;100814.19;6252070;22;20031;-75
2023/08/25 05:51:58;;;;;;;33.50;26.13;;;;;;;19.14;100.00;100817.13;6279638;22;20012;-75
2023/08/25 05:54:25;;;;;;;35.15;25.85;;;;;;;19.16;100.00;100820.06;6252318;22;20044;-77
2023/08/25 05:56:54;;;;;;;32.80;25.05;;;;;;;19.21;100.00;100816.59;6252144;22;20024;-75
2023/08/25 05:59:21;;;;;;;33.85;24.92;;;;;;;19.24;100.00;100821.00;6279374;22;20079;-75
2023/08/25 06:01:48;;;;;;;36.80;26.63;;;;;;;19.25;100.00;100812.41;6280192;22;20091;-75
2023/08/25 06:04:15;;;;;;;34.08;26.38;;;;;;;19.28;100.00;100807.97;6279985;22;20012;-75
2023/08/25 06:06:41;;;;;;;36.85;26.58;;;;;;;19.31;100.00;100807.72;6278594;22;20476;-75
2023/08/25 06:09:08;;;;;;;31.90;26.33;;;;;;;19.30;100.00;100811.66;6280104;22;20159;-75
2023/08/25 06:11:36;;;;;;;35.30;26.73;;;;;;;19.30;100.00;100802.81;6278866;22;20012;-74
2023/08/25 06:14:02;;;;;;;38.83;26.58;;;;;;;19.30;100.00;100808.22;6279730;22;20043;-75
2023/08/25 06:16:29;;;;;;;34.22;26.02;;;;;;;19.34;100.00;100811.38;6278918;22;20094;-75
2023/08/25 06:18:55;;;;;;;37.38;28.77;;;;;;;19.38;100.00;100819.22;6279821;22;20082;-75
2023/08/25 06:21:22;;;;;;;36.55;25.50;;;;;;;19.41;100.00;100812.84;6278569;22;20409;-75
2023/08/25 06:23:48;;;;;;;33.30;26.40;;;;;;;19.42;100.00;100809.63;6279847;22;20055;-75
2023/08/25 06:26:15;;;;;;;35.15;26.58;;;;;;;19.42;100.00;100804.25;6279655;22;20019;-76
2023/08/25 06:28:42;;;;;;;34.30;26.10;;;;;;;19.43;100.00;100807.69;6278839;22;20488;-75
2023/08/25 06:31:08;;;;;;;33.20;26.52;;;;;;;19.44;100.00;100809.88;6279679;22;20019;-75
2023/08/25 06:33:35;;;;;;;34.90;27.48;;;;;;;19.47;100.00;100813.53;6278889;22;20418;-75
2023/08/25 06:36:02;;;;;;;30.75;25.85;;;;;;;19.47;100.00;100814.28;6280061;22;20477;-74
2023/08/25 06:38:28;;;;;;;37.80;25.63;;;;;;;19.49;100.00;100814.50;6280450;22;20060;-74
2023/08/25 06:41:04;;;;;;;36.55;26.92;;;;;;;19.53;100.00;100820.41;6281037;22;20449;-74
2023/08/25 06:43:31;;;;;;;32.83;25.83;;;;;;;19.55;100.00;100833.41;6280516;22;20040;-74
2023/08/25 06:45:58;;;;;;;35.65;25.48;;;;;;;19.55;100.00;100828.75;6281266;22;20013;-75
2023/08/25 06:48:25;;;;;;;33.25;25.00;;;;;;;19.53;100.00;100836.63;6280381;22;20020;-75
2023/08/25 06:50:51;;;;;;;31.85;24.25;;;;;;;19.54;100.00;100840.03;6280499;22;20043;-75
2023/08/25 06:53:19;;;;;;;32.30;24.70;;;;;;;19.57;100.00;100830.94;6280547;22;20023;-75
2023/08/25 06:55:45;;;;;;;34.70;26.05;;;;;;;19.60;100.00;100822.56;6254005;22;20054;-76
2023/08/25 06:58:12;;;;;;;32.03;25.63;;;;;;;19.65;100.00;100815.66;6280402;22;20028;-75
2023/08/25 07:00:38;;;;;;;31.98;25.35;;;;;;;19.75;100.00;100814.13;6280325;22;20017;-75
2023/08/25 07:03:05;;;;;;;37.70;26.42;;;;;;;19.85;100.00;100811.88;6253870;22;20446;-75
2023/08/25 07:05:32;;;;;;;33.55;25.38;;;;;;;19.95;100.00;100807.63;6279509;22;20016;-75
2023/08/25 07:07:58;;;;;;;41.20;27.25;;;;;;;19.99;100.00;100797.97;6280773;22;20100;-75
2023/08/25 07:10:25;;;;;;;38.20;26.45;;;;;;;20.05;100.00;100795.25;6252884;22;20091;-76
2023/08/25 07:12:52;;;;;;;37.35;27.23;;;;;;;20.17;100.00;100795.88;6281256;22;20020;-75
2023/08/25 07:15:18;;;;;;;45.80;26.48;;;;;;;20.25;100.00;100802.94;6252865;22;20022;-75
2023/08/25 07:17:45;;;;;;;44.75;26.05;;;;;;;20.38;100.00;100798.94;6280665;22;20059;-75
2023/08/25 07:20:12;;;;;;;36.22;26.00;;;;;;;20.46;100.00;100794.41;6253296;22;20012;-75
2023/08/25 07:22:40;;;;;;;38.85;25.73;;;;;;;20.55;100.00;100802.94;6281820;22;20012;-75
2023/08/25 07:25:07;;;;;;;44.97;26.45;;;;;;;20.57;100.00;100791.59;6280700;22;20023;-75
2023/08/25 07:27:34;;;;;;;36.72;25.52;;;;;;;20.62;100.00;100782.69;6279978;22;20451;-75
2023/08/25 07:30:01;;;;;;;43.83;26.70;;;;;;;20.67;100.00;100779.22;6280530;22;20022;-75
2023/08/25 07:32:27;;;;;;;34.83;27.00;;;;;;;20.75;100.00;100782.81;6279406;22;20019;-75
2023/08/25 07:34:55;;;;;;;39.42;27.05;;;;;;;20.83;100.00;100785.66;6280588;22;20393;-75
2023/08/25 07:37:22;;;;;;;40.08;26.75;;;;;;;20.85;100.00;100794.00;6279822;22;20437;-76
2023/08/25 07:39:51;;;;;;;41.30;26.08;;;;;;;20.88;100.00;100785.59;6280850;22;20012;-74
2023/08/25 07:42:17;;;;;;;33.22;26.35;;;;;;;20.93;100.00;100792.91;6280124;22;20449;-74
2023/08/25 07:44:44;;;;;;;38.08;27.60;;;;;;;20.93;100.00;100795.63;6280574;22;20052;-74
2023/08/25 07:47:11;;;;;;;36.05;25.88;;;;;;;20.93;100.00;100797.59;6279755;22;20346;-74
2023/08/25 07:49:37;;;;;;;34.13;26.40;;;;;;;20.90;100.00;100796.63;6280194;22;20158;-74
2023/08/25 07:52:04;;;;;;;38.38;26.25;;;;;;;20.91;100.00;100802.78;6280705;22;20036;-74
2023/08/25 07:54:30;;;;;;;38.42;26.92;;;;;;;20.93;100.00;100800.31;6279874;22;20091;-74
2023/08/25 07:56:58;;;;;;;35.30;25.73;;;;;;;20.84;100.00;100798.66;6279857;22;20023;-74
2023/08/25 07:59:25;;;;;;;36.65;26.30;;;;;;;20.82;100.00;100781.47;6279860;22;20016;-74
2023/08/25 08:01:51;;;;;;;34.00;26.83;;;;;;;20.82;100.00;100757.88;6280005;22;20012;-74
2023/08/25 08:04:18;;;;;;;35.28;26.27;;;;;;;20.88;100.00;100763.22;6279915;22;20074;-74
2023/08/25 08:06:47;;;;;;;33.42;25.95;;;;;;;20.93;100.00;100775.94;6280556;22;20016;-74
2023/08/25 08:09:13;;;;;;;32.55;25.13;;;;;;;21.05;100.00;100771.88;6280959;22;20024;-74
2023/08/25 08:11:40;;;;;;;32.58;26.48;;;;;;;21.11;100.00;100793.44;6279825;22;20302;-74
2023/08/25 08:14:07;;;;;;;39.60;26.02;;;;;;;21.20;100.00;100795.78;6280836;22;20043;-74
2023/08/25 08:16:34;;;;;;;39.10;26.17;;;;;;;21.54;100.00;100804.97;6279122;22;20421;-73
2023/08/25 08:19:05;;;;;;;36.80;27.27;;;;;;;21.63;100.00;100809.25;6280401;22;20048;-74
2023/08/25 08:21:32;;;;;;;32.63;26.83;;;;;;;21.54;100.00;100810.38;6279639;22;20023;-74
2023/08/25 08:23:59;;;;;;;33.85;25.48;;;;;;;21.46;100.00;100817.63;6280522;22;20019;-73
2023/08/25 08:26:26;;;;;;;33.67;26.60;;;;;;;21.37;100.00;100811.84;6279450;22;20446;-75
2023/08/25 08:28:52;;;;;;;41.22;26.08;;;;;;;21.36;100.00;100813.09;6280283;22;20452;-76
2023/08/25 08:31:19;;;;;;;35.05;25.95;;;;;;;21.32;100.00;100818.06;6279058;22;20066;-75
2023/08/25 08:33:48;;;;;;;39.28;27.15;;;;;;;21.38;100.00;100819.44;6280129;22;20016;-75
2023/08/25 08:36:16;;;;;;;44.90;27.40;;;;;;;21.47;100.00;100810.97;6279834;22;20024;-75
2023/08/25 08:38:43;;;;;;;43.20;27.58;;;;;;;21.51;100.00;100811.41;6280102;22;20016;-75
2023/08/25 08:41:10;;;;;;;38.45;27.67;;;;;;;21.64;100.00;100819.56;6280452;22;20020;-74
2023/08/25 08:43:41;;;;;;;41.03;27.73;;;;;;;21.71;100.00;100815.53;6279738;22;20733;-73
2023/08/25 08:46:10;;;;;;;49.07;29.23;;;;;;;21.70;100.00;100819.50;6279715;22;20083;-73
2023/08/25 08:48:37;;;;;;;43.17;27.50;;;;;;;21.67;100.00;100812.41;6279281;22;20231;-73
2023/08/25 08:51:04;;;;;;;44.13;28.08;;;;;;;21.67;100.00;100815.09;6280046;22;20016;-74
2023/08/25 08:53:31;;;;;;;39.58;27.48;;;;;;;21.68;100.00;100815.84;6252025;22;20406;-74
2023/08/25 08:55:59;;;;;;;39.35;27.15;;;;;;;21.64;100.00;100816.88;6252502;22;20043;-73
2023/08/25 08:58:25;;;;;;;39.22;28.00;;;;;;;21.57;100.00;100814.78;6278754;22;20071;-76
2023/08/25 09:00:52;;;;;;;37.45;27.67;;;;;;;21.53;100.00;100816.31;6279716;22;20016;-75
2023/08/25 09:03:22;;;;;;;32.88;26.25;;;;;;;21.48;100.00;100823.25;6279549;22;20034;-76
2023/08/25 09:05:52;;;;;;;39.78;26.33;;;;;;;21.42;100.00;100832.69;6279916;22;20094;-77
2023/08/25 09:08:18;;;;;;;36.38;26.48;;;;;;;21.43;100.00;100829.47;6279104;22;20020;-75
2023/08/25 09:10:45;;;;;;;40.95;26.73;;;;;;;21.43;100.00;100817.91;6279735;22;20024;-74
2023/08/25 09:13:12;;;;;;;39.65;27.20;;;;;;;21.44;100.00;100824.81;6280229;22;20438;-75
2023/08/25 09:15:39;;;;;;;41.72;26.83;;;;;;;21.40;100.00;100827.06;6280993;22;20020;-75
2023/08/25 09:18:07;;;;;;;41.63;27.60;;;;;;;21.33;100.00;100841.91;6280887;22;20020;-75
2023/08/25 09:20:38;;;;;;;38.10;26.48;;;;;;;21.28;100.00;100837.31;6278876;22;20016;-75
2023/08/25 09:23:06;;;;;;;36.90;26.80;;;;;;;21.27;100.00;100839.28;6280138;22;20397;-75
2023/08/25 09:25:33;;;;;;;35.63;26.30;;;;;;;21.27;100.00;100833.13;6279189;22;20023;-75
2023/08/25 09:28:02;;;;;;;42.50;26.40;;;;;;;21.23;100.00;100827.28;6279850;22;20381;-75
2023/08/25 09:30:40;;;;;;;35.28;26.02;;;;;;;21.24;100.00;100836.84;6278707;22;20043;-75
2023/08/25 09:33:13;;;;;;;37.55;26.60;;;;;;;21.29;100.00;100820.53;6279840;22;20012;-75
2023/08/25 09:35:41;;;;;;;38.22;26.98;;;;;;;21.41;100.00;100831.25;6279145;22;20020;-75
2023/08/25 09:38:20;;;;;;;34.80;26.98;;;;;;;21.43;100.00;100829.47;6252330;22;20027;-75
2023/08/25 09:40:47;;;;;;;38.42;26.85;;;;;;;21.44;100.00;100828.25;6280007;22;20095;-75
2023/08/25 09:43:14;;;;;;;44.20;27.20;;;;;;;21.45;100.00;100843.25;6279172;22;20092;-75
2023/08/25 09:45:40;;;;;;;33.17;26.17;;;;;;;21.42;100.00;100833.44;6278949;22;20020;-75
2023/08/25 09:48:09;;;;;;;34.22;27.20;;;;;;;21.33;100.00;100833.78;6279633;22;20318;-74
2023/08/25 09:50:38;;;;;;;33.88;26.48;;;;;;;21.32;100.00;100839.72;6279144;22;20075;-76
2023/08/25 09:53:09;;;;;;;33.38;25.13;;;;;;;21.33;100.00;100835.78;6278856;22;20074;-76
2023/08/25 09:55:37;;;;;;;33.88;24.92;;;;;;;21.33;100.00;100831.09;6279037;22;20670;-76
2023/08/25 09:58:08;;;;;;;32.25;26.15;;;;;;;21.48;100.00;100834.09;6278887;22;20417;-74
2023/08/25 10:00:37;;;;;;;32.05;25.02;;;;;;;21.73;100.00;100842.13;6278676;22;20461;-73
2023/08/25 10:03:11;;;;;;;34.08;26.33;;;;;;;21.96;100.00;100843.25;6252372;22;20020;-76
2023/08/25 10:05:38;;;;;;;38.38;25.20;;;;;;;22.12;100.00;100846.97;6251751;22;20095;-75
2023/08/25 10:08:09;;;;;;;31.83;24.55;;;;;;;22.07;100.00;100834.97;6279804;22;20051;-76
2023/08/25 10:10:38;;;;;;;29.17;23.83;;;;;;;22.14;100.00;100823.53;6280003;22;20441;-75
2023/08/25 10:13:09;;;;;;;29.60;23.65;;;;;;;22.27;100.00;100804.56;6278251;22;20125;-76
2023/08/25 10:15:37;;;;;;;23.40;20.83;;;;;;;22.27;98.64;100810.00;6276738;22;20020;-76
2023/08/25 10:18:07;;;;;;;22.92;19.48;;;;;;;22.19;97.10;100809.16;6277499;22;20016;-76
2023/08/25 10:20:35;;;;;;;21.35;18.13;;;;;;;22.25;97.18;100820.63;6277637;22;20430;-75
2023/08/25 10:23:08;;;;;;;23.10;17.52;;;;;;;22.22;96.11;100810.09;6278472;22;20093;-75
2023/08/25 10:25:36;;;;;;;19.80;16.38;;;;;;;22.26;96.73;100822.09;6278359;22;20020;-75
2023/08/25 10:28:05;;;;;;;20.23;15.43;;;;;;;22.25;94.26;100812.50;6279417;22;20043;-75
2023/08/25 10:30:33;;;;;;;15.02;13.52;;;;;;;22.25;94.28;100809.06;6280422;22;20142;-75
2023/08/25 10:33:06;;;;;;;13.55;11.95;;;;;;;22.29;94.59;100810.22;6280751;22;20019;-75
2023/08/25 10:35:47;;;;;;;9.95;9.05;;;;;;;22.24;92.51;100802.16;6280241;22;20027;-75
2023/08/25 10:38:35;;;;;;;8.55;7.75;;;;;;;22.16;94.08;100806.75;6280931;22;20021;-75
2023/08/25 10:41:17;;;;;;;10.05;7.05;;;;;;;22.25;93.57;100798.94;6280618;22;20016;-73
2023/08/25 10:43:49;;;;;;;;;;;;;;;22.43;94.37;100785.81;6281564;22;20244;-75
2023/08/25 10:46:20;;;;;;;8.05;6.47;;;;;;;22.53;91.84;100795.00;6281060;22;19999;-74
2023/08/25 10:49:07;;;;;;;8.43;7.72;;;;;;;22.66;91.37;100807.84;6281346;22;20453;-73
2023/08/25 10:51:37;;;;;;;9.35;8.55;;;;;;;22.74;90.74;100800.53;6280412;22;20012;-74
2023/08/25 10:54:04;;;;;;;10.15;9.20;;;;;;;22.80;88.84;100788.31;6281096;22;20016;-75
2023/08/25 10:56:30;;;;;;;9.43;8.63;;;;;;;22.94;89.81;100795.19;6279898;22;20055;-75
2023/08/25 10:59:11;;;;;;;10.20;9.38;;;;;;;23.27;87.77;100798.47;6281156;22;20043;-75
2023/08/25 11:01:38;;;;;;;14.57;9.83;;;;;;;23.51;84.96;100800.91;6280392;22;20507;-74
2023/08/25 11:04:27;;;;;;;10.13;9.23;;;;;;;23.56;84.61;100797.38;6253718;22;20026;-75
2023/08/25 11:06:58;;;;;;;10.45;8.80;;;;;;;23.56;84.63;100807.50;6281374;22;20036;-73
2023/08/25 11:09:26;;;;;;;15.23;9.75;;;;;;;23.36;84.35;100794.59;6280223;22;20012;-74